West Magic, Idaho
Current Conditions -  °F | °C
As of 7:53 PM on Saturday 25 Oct 2014 (Local Time) from KJER Reporting Station
Overcast Overcast  
Wind Chill: 65°   Ceiling: 10000
Heat Index: 65°   Visibility: 10mi
Dew Point: 36°   Wind: 5mph
Humidity: 34%   Direction: 330°NNW
Pressure: 29.79"   Gusts: NA
Location:  42.9609°N, 114.301°W
Report Text: KJER 260153Z AUTO 33004KT 10SM FEW070 OVC100 18/02 A2979 RMK AO2 RAB14E43 SLP070 P0000 T01830022
Loading
Personal Weather Stations






























Interactive Weather Map
Tropical Storm Tracking
New forecast layout! Learn more

10-Day Weather Forecast

Advertisements
Track Severe Weather on mobile